createdAt,value
2022-12-29T00:01:08.367Z,99045.28
2022-12-29T00:03:38.241Z,99051.28
2022-12-29T00:06:08.057Z,99054.75
2022-12-29T00:08:43.479Z,99059.81
2022-12-29T00:11:16.012Z,99054.72
2022-12-29T00:14:03.980Z,99059.03
2022-12-29T00:16:35.051Z,99061.66
2022-12-29T00:19:05.814Z,99069.34
2022-12-29T00:21:53.247Z,99069.38
2022-12-29T00:24:24.450Z,99077.06
2022-12-29T00:27:19.511Z,99069.38
2022-12-29T00:30:07.210Z,99073.50
2022-12-29T00:32:55.178Z,99069.16
2022-12-29T00:35:32.207Z,99077.81
2022-12-29T00:38:25.534Z,99094.13
2022-12-29T00:41:13.240Z,99103.47
2022-12-29T00:44:01.806Z,99111.13
2022-12-29T00:46:31.942Z,99119.78
2022-12-29T00:49:20.252Z,99133.47
2022-12-29T00:51:50.825Z,99122.38
2022-12-29T00:54:21.214Z,99101.91
2022-12-29T00:56:55.276Z,99093.38
2022-12-29T00:59:26.192Z,99090.81
2022-12-29T01:02:01.522Z,99071.97
2022-12-29T01:04:34.799Z,99062.53
2022-12-29T01:07:07.550Z,99066.81
2022-12-29T01:09:57.402Z,99066.75
2022-12-29T01:12:43.125Z,99070.97
2022-12-29T01:15:16.748Z,99091.56
2022-12-29T01:17:47.574Z,99100.06
2022-12-29T01:20:18.316Z,99112.91
2022-12-29T01:22:49.796Z,99107.78
2022-12-29T01:25:23.407Z,99099.16
2022-12-29T01:27:53.709Z,99095.72
2022-12-29T01:30:23.933Z,99097.47
2022-12-29T01:32:56.206Z,99090.56
2022-12-29T01:35:26.015Z,99083.78
2022-12-29T01:37:56.967Z,99075.19
2022-12-29T01:40:27.328Z,99070.06
2022-12-29T01:42:58.004Z,99085.50
2022-12-29T01:45:28.236Z,99084.59
2022-12-29T01:48:08.040Z,99085.47
2022-12-29T01:50:57.015Z,99083.84
2022-12-29T01:53:34.080Z,99081.25
2022-12-29T01:56:09.993Z,99081.25
2022-12-29T01:58:47.673Z,99075.28
2022-12-29T02:01:21.245Z,99085.53
2022-12-29T02:03:53.351Z,99087.94
2022-12-29T02:06:39.985Z,99078.66
2022-12-29T02:09:10.271Z,99067.50
2022-12-29T02:11:42.379Z,99076.06
2022-12-29T02:14:14.579Z,99087.22
2022-12-29T02:17:10.659Z,99087.25
2022-12-29T02:19:49.952Z,99085.47
2022-12-29T02:22:42.928Z,99085.44
2022-12-29T02:25:21.654Z,99085.53
2022-12-29T02:28:42.477Z,99090.72
2022-12-29T02:31:30.775Z,99104.38
2022-12-29T02:34:16.422Z,99109.56
2022-12-29T02:37:30.112Z,99119.91
2022-12-29T02:40:23.434Z,99128.44
2022-12-29T02:43:23.816Z,99119.06
2022-12-29T02:45:57.824Z,99125.00
2022-12-29T02:48:46.424Z,99133.66
2022-12-29T02:51:26.782Z,99140.50
2022-12-29T02:54:16.039Z,99126.78
2022-12-29T02:56:47.290Z,99133.69
2022-12-29T02:59:18.067Z,99133.72
2022-12-29T03:02:19.572Z,99131.28
2022-12-29T03:05:18.910Z,99120.13
2022-12-29T03:08:07.569Z,99129.53
2022-12-29T03:11:05.955Z,99130.38
2022-12-29T03:14:08.965Z,99151.81
2022-12-29T03:16:47.724Z,99163.88
2022-12-29T03:19:38.125Z,99166.44
2022-12-29T03:22:33.324Z,99177.66
2022-12-29T03:25:25.657Z,99181.91
2022-12-29T03:28:02.891Z,99181.75
2022-12-29T03:30:38.752Z,99200.66
2022-12-29T03:33:15.176Z,99207.59
2022-12-29T03:35:49.308Z,99209.34
2022-12-29T03:38:26.985Z,99209.38
2022-12-29T03:41:05.532Z,99217.91
2022-12-29T03:43:37.151Z,99224.75
2022-12-29T03:46:07.667Z,99229.06
2022-12-29T03:48:38.681Z,99218.78
2022-12-29T03:51:09.079Z,99232.47
2022-12-29T03:53:39.637Z,99229.13
2022-12-29T03:56:10.249Z,99232.63
2022-12-29T03:58:41.073Z,99227.41
2022-12-29T04:01:19.187Z,99237.78
2022-12-29T04:03:49.578Z,99226.66
2022-12-29T04:06:20.185Z,99224.09
2022-12-29T04:09:09.400Z,99220.72
2022-12-29T04:11:46.791Z,99230.16
2022-12-29T04:14:17.184Z,99228.50
2022-12-29T04:16:48.934Z,99235.47
2022-12-29T04:19:20.170Z,99234.56
2022-12-29T04:21:52.029Z,99231.16
2022-12-29T04:24:22.749Z,99226.88
2022-12-29T04:26:53.698Z,99226.06
2022-12-29T04:29:44.249Z,99220.94
2022-12-29T04:32:34.050Z,99225.22
2022-12-29T04:35:05.046Z,99231.25
2022-12-29T04:37:35.902Z,99233.81
2022-12-29T04:40:07.214Z,99241.53
2022-12-29T04:42:38.310Z,99244.16
2022-12-29T04:45:10.969Z,99252.81
2022-12-29T04:47:56.216Z,99265.69
2022-12-29T04:50:41.439Z,99267.41
2022-12-29T04:53:21.969Z,99254.53
2022-12-29T04:55:54.436Z,99250.25
2022-12-29T04:58:25.277Z,99252.81
2022-12-29T05:00:56.462Z,99240.81
2022-12-29T05:03:29.907Z,99235.66
2022-12-29T05:06:00.738Z,99232.22
2022-12-29T05:08:31.504Z,99229.63
2022-12-29T05:11:04.033Z,99233.03
2022-12-29T05:13:34.616Z,99204.59
2022-12-29T05:16:06.984Z,99202.84
2022-12-29T05:18:38.044Z,99196.84
2022-12-29T05:21:09.328Z,99182.19
2022-12-29T05:23:40.761Z,99181.28
2022-12-29T05:26:11.462Z,99185.44
2022-12-29T05:28:56.011Z,99194.88
2022-12-29T05:31:26.666Z,99205.91
2022-12-29T05:33:56.989Z,99209.22
2022-12-29T05:36:30.625Z,99209.34
2022-12-29T05:39:06.289Z,99210.88
2022-12-29T05:41:38.257Z,99203.19
2022-12-29T05:44:13.090Z,99183.38
2022-12-29T05:46:51.159Z,99178.22
2022-12-29T05:49:46.346Z,99191.06
2022-12-29T05:52:36.600Z,99200.31
2022-12-29T05:55:07.865Z,99191.66
2022-12-29T05:57:40.162Z,99189.19
2022-12-29T06:00:15.044Z,99179.72
2022-12-29T06:02:47.157Z,99179.66
2022-12-29T06:05:19.580Z,99178.69
2022-12-29T06:07:50.588Z,99196.78
2022-12-29T06:10:21.878Z,99201.91
2022-12-29T06:13:07.609Z,99202.91
2022-12-29T06:15:45.794Z,99208.13
2022-12-29T06:18:20.064Z,99219.34
2022-12-29T06:21:12.879Z,99234.81
2022-12-29T06:23:43.798Z,99249.59
2022-12-29T06:26:26.772Z,99270.19
2022-12-29T06:28:57.616Z,99280.69
2022-12-29T06:31:27.893Z,99289.34
2022-12-29T06:34:01.268Z,99290.19
2022-12-29T06:36:34.026Z,99287.59
2022-12-29T06:39:04.140Z,99282.50
2022-12-29T06:41:34.646Z,99274.69
2022-12-29T06:44:30.999Z,99291.91
2022-12-29T06:47:04.097Z,99302.25
2022-12-29T06:49:33.901Z,99298.88
2022-12-29T06:52:12.290Z,99278.38
2022-12-29T06:54:42.632Z,99269.69
2022-12-29T06:57:12.381Z,99258.47
2022-12-29T06:59:43.619Z,99253.41
2022-12-29T07:02:17.216Z,99255.09
2022-12-29T07:04:47.351Z,99250.78
2022-12-29T07:07:17.572Z,99256.72
2022-12-29T07:09:48.510Z,99254.22
2022-12-29T07:12:18.326Z,99256.75
2022-12-29T07:14:47.839Z,99244.78
2022-12-29T07:17:17.958Z,99256.72
2022-12-29T07:19:47.730Z,99261.09
2022-12-29T07:22:17.323Z,99266.28
2022-12-29T07:24:46.812Z,99262.94
2022-12-29T07:27:16.320Z,99253.47
2022-12-29T07:29:46.512Z,99259.50
2022-12-29T07:32:16.382Z,99249.13
2022-12-29T07:34:50.287Z,99242.22
2022-12-29T07:37:21.550Z,99233.66
2022-12-29T07:39:51.010Z,99220.72
2022-12-29T07:42:20.725Z,99221.69
2022-12-29T07:44:54.667Z,99209.56
2022-12-29T07:47:39.320Z,99201.13
2022-12-29T07:50:09.468Z,99188.09
2022-12-29T07:52:39.080Z,99180.25
2022-12-29T07:55:09.406Z,99166.50
2022-12-29T07:57:39.199Z,99158.81
2022-12-29T08:00:09.409Z,99163.09
2022-12-29T08:02:42.226Z,99154.47
2022-12-29T08:05:11.960Z,99156.06
2022-12-29T08:07:42.090Z,99144.00
2022-12-29T08:10:12.342Z,99135.25
2022-12-29T08:12:43.559Z,99126.56
2022-12-29T08:15:14.888Z,99121.38
2022-12-29T08:17:44.635Z,99125.84
2022-12-29T08:20:14.787Z,99122.34
2022-12-29T08:22:45.049Z,99112.13
2022-12-29T08:25:16.241Z,99097.47
2022-12-29T08:27:46.543Z,99096.50
2022-12-29T08:30:16.564Z,99097.34
2022-12-29T08:32:46.136Z,99100.81
2022-12-29T08:35:15.804Z,99091.34
2022-12-29T08:37:45.465Z,99082.69
2022-12-29T08:40:15.987Z,99090.41
2022-12-29T08:42:46.583Z,99081.84
2022-12-29T08:45:16.258Z,99086.16
2022-12-29T08:47:45.663Z,99088.72
2022-12-29T08:50:15.328Z,99085.25
2022-12-29T08:52:45.019Z,99081.03
2022-12-29T08:55:15.205Z,99064.66
2022-12-29T08:57:45.404Z,99064.66
2022-12-29T09:00:20.124Z,99072.44
2022-12-29T09:02:50.244Z,99061.34
2022-12-29T09:05:20.201Z,99058.69
2022-12-29T09:07:49.919Z,99062.09
2022-12-29T09:10:19.567Z,99082.94
2022-12-29T09:12:49.103Z,99073.50
2022-12-29T09:15:19.048Z,99068.31
2022-12-29T09:17:49.165Z,99076.94
2022-12-29T09:20:22.190Z,99073.41
2022-12-29T09:22:52.499Z,99061.50
2022-12-29T09:25:24.985Z,99043.31
2022-12-29T09:27:55.955Z,99044.06
2022-12-29T09:30:27.010Z,99071.72
2022-12-29T09:32:56.686Z,99076.13
2022-12-29T09:35:26.912Z,99073.53
2022-12-29T09:37:56.597Z,99058.03
2022-12-29T09:40:34.795Z,99048.50
2022-12-29T09:43:15.106Z,99036.47
2022-12-29T09:45:49.648Z,99042.44
2022-12-29T09:48:25.290Z,99053.66
2022-12-29T09:51:11.322Z,99057.13
2022-12-29T09:53:52.439Z,99056.31
2022-12-29T09:56:27.776Z,99035.63
2022-12-29T09:59:07.337Z,99018.41
2022-12-29T10:01:55.218Z,99020.06
2022-12-29T10:04:25.219Z,99022.75
2022-12-29T10:07:30.948Z,99035.63
2022-12-29T10:10:05.888Z,99038.28
2022-12-29T10:12:54.077Z,99001.41
2022-12-29T10:15:57.475Z,98999.56
2022-12-29T10:18:54.864Z,99009.00
2022-12-29T10:21:41.213Z,98996.19
2022-12-29T10:24:14.591Z,98991.09
2022-12-29T10:26:46.762Z,98992.78
2022-12-29T10:29:19.664Z,98985.78
2022-12-29T10:32:02.251Z,99003.88
2022-12-29T10:34:40.783Z,99011.75
2022-12-29T10:37:36.705Z,99001.50
2022-12-29T10:40:35.633Z,99004.00
2022-12-29T10:43:21.263Z,99007.44
2022-12-29T10:45:51.596Z,99004.03
2022-12-29T10:48:33.321Z,98998.88
2022-12-29T10:51:06.855Z,98996.34
2022-12-29T10:53:49.231Z,99015.19
2022-12-29T10:56:40.540Z,99031.69
2022-12-29T10:59:26.730Z,98988.78
2022-12-29T11:02:02.628Z,98962.94
2022-12-29T11:05:06.512Z,98977.41
2022-12-29T11:07:36.092Z,98994.84
2022-12-29T11:10:32.707Z,98981.94
2022-12-29T11:13:06.584Z,98969.03
2022-12-29T11:15:44.773Z,98964.81
2022-12-29T11:18:29.265Z,98945.97
2022-12-29T11:21:02.572Z,98944.22
2022-12-29T11:23:36.064Z,98951.94
2022-12-29T11:26:24.556Z,98948.63
2022-12-29T11:29:11.150Z,98951.28
2022-12-29T11:31:48.994Z,98940.06
2022-12-29T11:34:23.814Z,98939.16
2022-12-29T11:37:01.155Z,98937.44
2022-12-29T11:39:50.001Z,98956.28
2022-12-29T11:42:24.193Z,98969.38
2022-12-29T11:44:54.958Z,98964.25
2022-12-29T11:47:34.354Z,98957.34
2022-12-29T11:50:07.805Z,98957.25
2022-12-29T11:52:41.734Z,98954.66
2022-12-29T11:55:23.090Z,98953.00
2022-12-29T11:57:54.930Z,98940.09
2022-12-29T12:00:29.907Z,98935.72
2022-12-29T12:03:15.981Z,98955.50
2022-12-29T12:05:56.021Z,98951.28
2022-12-29T12:08:44.487Z,98964.19
2022-12-29T12:11:55.958Z,98974.41
2022-12-29T12:15:02.435Z,98981.38
2022-12-29T12:17:55.485Z,98970.16
2022-12-29T12:20:35.551Z,98971.84
2022-12-29T12:23:29.926Z,98972.72
2022-12-29T12:26:16.001Z,98975.28
2022-12-29T12:29:03.639Z,98982.19
2022-12-29T12:31:52.652Z,98986.47
2022-12-29T12:34:38.744Z,98990.78
2022-12-29T12:37:25.432Z,98990.78
2022-12-29T12:40:25.642Z,98997.59
2022-12-29T12:43:46.448Z,98998.44
2022-12-29T12:46:52.305Z,98989.84
2022-12-29T12:49:51.604Z,98981.31
2022-12-29T12:52:31.950Z,98977.88
2022-12-29T12:55:32.229Z,98992.44
2022-12-29T12:58:36.679Z,99008.00
2022-12-29T13:01:24.796Z,99015.72
2022-12-29T13:04:03.818Z,99007.13
2022-12-29T13:06:45.032Z,99008.91
2022-12-29T13:10:11.712Z,99012.31
2022-12-29T13:12:50.586Z,99022.63
2022-12-29T13:15:38.836Z,99037.28
2022-12-29T13:18:16.548Z,99056.19
2022-12-29T13:20:58.429Z,99066.47
2022-12-29T13:23:47.074Z,99081.06
2022-12-29T13:26:19.928Z,99056.19
2022-12-29T13:29:06.780Z,99064.75
2022-12-29T13:31:58.927Z,99088.78
2022-12-29T13:34:43.641Z,99104.25
2022-12-29T13:37:21.109Z,99096.50
2022-12-29T13:40:12.719Z,99098.25
2022-12-29T13:42:43.548Z,99105.09
2022-12-29T13:45:27.009Z,99108.56
2022-12-29T13:48:09.658Z,99111.13
2022-12-29T13:50:43.933Z,99122.25
2022-12-29T13:53:37.386Z,99133.47
2022-12-29T13:56:26.993Z,99130.88
2022-12-29T13:59:42.780Z,99138.56
2022-12-29T14:02:30.372Z,99142.06
2022-12-29T14:05:24.655Z,99149.78
2022-12-29T14:08:06.989Z,99148.03
2022-12-29T14:10:53.917Z,99149.75
2022-12-29T14:13:28.498Z,99159.19
2022-12-29T14:16:01.273Z,99161.78
2022-12-29T14:18:45.956Z,99157.47
2022-12-29T14:21:31.719Z,99140.31
2022-12-29T14:24:42.389Z,99140.31
2022-12-29T14:27:15.012Z,99139.44
2022-12-29T14:29:46.264Z,99148.88
2022-12-29T14:32:36.121Z,99161.75
2022-12-29T14:35:41.576Z,99155.75
2022-12-29T14:38:20.968Z,99150.63
2022-12-29T14:40:51.629Z,99162.59
2022-12-29T14:43:28.632Z,99157.44
2022-12-29T14:46:01.707Z,99156.56
2022-12-29T14:48:36.213Z,99163.41
2022-12-29T14:51:33.467Z,99174.59
2022-12-29T14:54:22.782Z,99182.28
2022-12-29T14:56:52.749Z,99182.25
2022-12-29T14:59:23.111Z,99182.25
2022-12-29T15:01:58.041Z,99184.00
2022-12-29T15:04:35.621Z,99202.00
2022-12-29T15:07:10.806Z,99208.00
2022-12-29T15:09:52.856Z,99225.19
2022-12-29T15:12:22.674Z,99223.34
2022-12-29T15:14:57.855Z,99228.53
2022-12-29T15:17:29.105Z,99230.22
2022-12-29T15:20:00.889Z,99247.25
2022-12-29T15:22:30.671Z,99250.44
2022-12-29T15:25:01.085Z,99253.91
2022-12-29T15:27:31.474Z,99261.66
2022-12-29T15:30:11.794Z,99262.72
2022-12-29T15:32:49.812Z,99266.97
2022-12-29T15:35:32.068Z,99259.25
2022-12-29T15:38:02.104Z,99257.56
2022-12-29T15:40:34.751Z,99262.59
2022-12-29T15:43:33.381Z,99269.38
2022-12-29T15:46:04.939Z,99270.25
2022-12-29T15:48:35.548Z,99272.09
2022-12-29T15:51:05.699Z,99266.97
2022-12-29T15:53:36.289Z,99266.06
2022-12-29T15:56:13.210Z,99262.72
2022-12-29T15:58:52.343Z,99272.13
2022-12-29T16:01:33.997Z,99266.16
2022-12-29T16:04:08.648Z,99257.56
2022-12-29T16:06:40.863Z,99263.50
2022-12-29T16:09:19.941Z,99266.13
2022-12-29T16:11:56.045Z,99273.69
2022-12-29T16:14:48.211Z,99275.56
2022-12-29T16:17:23.108Z,99282.31
2022-12-29T16:19:59.714Z,99287.25
2022-12-29T16:22:42.829Z,99288.28
2022-12-29T16:25:20.919Z,99290.81
2022-12-29T16:27:52.342Z,99272.88
2022-12-29T16:30:33.182Z,99274.44
2022-12-29T16:33:06.736Z,99277.13
2022-12-29T16:35:50.168Z,99265.28
2022-12-29T16:38:23.511Z,99248.97
2022-12-29T16:41:04.267Z,99244.59
2022-12-29T16:43:44.542Z,99252.38
2022-12-29T16:46:34.814Z,99254.94
2022-12-29T16:49:04.671Z,99272.03
2022-12-29T16:51:38.212Z,99286.53
2022-12-29T16:54:09.400Z,99310.41
2022-12-29T16:56:40.978Z,99303.69
2022-12-29T16:59:26.174Z,99296.09
2022-12-29T17:01:56.605Z,99285.72
2022-12-29T17:04:26.456Z,99292.66
2022-12-29T17:06:55.808Z,99285.69
2022-12-29T17:09:28.658Z,99268.38
2022-12-29T17:12:08.683Z,99236.75
2022-12-29T17:14:43.207Z,99243.69
2022-12-29T17:17:15.570Z,99253.97
2022-12-29T17:19:51.735Z,99246.31
2022-12-29T17:22:30.105Z,99256.56
2022-12-29T17:25:02.176Z,99267.66
2022-12-29T17:27:39.909Z,99272.72
2022-12-29T17:30:15.528Z,99260.09
2022-12-29T17:32:51.493Z,99247.25
2022-12-29T17:35:23.553Z,99258.38
2022-12-29T17:37:53.826Z,99250.63
2022-12-29T17:40:28.492Z,99239.56
2022-12-29T17:43:00.112Z,99248.84
2022-12-29T17:45:34.239Z,99242.16
2022-12-29T17:48:04.014Z,99249.84
2022-12-29T17:50:33.901Z,99252.41
2022-12-29T17:53:12.289Z,99249.00
2022-12-29T17:55:42.428Z,99245.53
2022-12-29T17:58:25.281Z,99245.59
2022-12-29T18:00:57.507Z,99246.38
2022-12-29T18:03:31.875Z,99253.22
2022-12-29T18:06:02.175Z,99252.38
2022-12-29T18:08:32.039Z,99251.53
2022-12-29T18:11:01.867Z,99247.22
2022-12-29T18:13:45.554Z,99244.69
2022-12-29T18:16:16.622Z,99242.84
2022-12-29T18:18:47.116Z,99230.78
2022-12-29T18:21:22.758Z,99236.13
2022-12-29T18:23:53.366Z,99243.69
2022-12-29T18:26:27.931Z,99221.47
2022-12-29T18:28:59.789Z,99229.94
2022-12-29T18:31:35.143Z,99230.94
2022-12-29T18:34:14.851Z,99231.75
2022-12-29T18:36:44.860Z,99232.59
2022-12-29T18:39:14.613Z,99230.00
2022-12-29T18:41:44.101Z,99229.94
2022-12-29T18:44:15.111Z,99237.75
2022-12-29T18:46:44.650Z,99230.69
2022-12-29T18:49:14.984Z,99231.44
2022-12-29T18:51:44.618Z,99239.31
2022-12-29T18:54:46.413Z,99242.00
2022-12-29T18:57:16.127Z,99236.78
2022-12-29T18:59:45.794Z,99228.22
2022-12-29T19:02:19.072Z,99235.09
2022-12-29T19:04:52.833Z,99228.09
2022-12-29T19:07:23.184Z,99223.84
2022-12-29T19:09:52.862Z,99224.63
2022-12-29T19:12:28.105Z,99229.63
2022-12-29T19:14:58.454Z,99231.50
2022-12-29T19:17:28.012Z,99240.06
2022-12-29T19:19:57.827Z,99240.03
2022-12-29T19:22:27.394Z,99243.44
2022-12-29T19:25:00.047Z,99249.47
2022-12-29T19:27:30.154Z,99238.31
2022-12-29T19:30:00.024Z,99245.13
2022-12-29T19:32:29.657Z,99246.78
2022-12-29T19:34:59.293Z,99251.06
2022-12-29T19:37:29.079Z,99253.63
2022-12-29T19:39:58.805Z,99258.75
2022-12-29T19:42:28.420Z,99256.84
2022-12-29T19:44:58.266Z,99250.81
2022-12-29T19:47:31.902Z,99262.03
2022-12-29T19:50:03.183Z,99259.44
2022-12-29T19:52:33.172Z,99260.28
2022-12-29T19:55:04.523Z,99257.59
2022-12-29T19:57:34.251Z,99258.44
2022-12-29T20:00:04.391Z,99255.03
2022-12-29T20:02:41.332Z,99254.25
2022-12-29T20:05:12.370Z,99255.00
2022-12-29T20:07:42.062Z,99256.66
2022-12-29T20:10:11.772Z,99254.09
2022-12-29T20:12:41.392Z,99260.97
2022-12-29T20:15:12.997Z,99263.53
2022-12-29T20:20:35.943Z,99253.19
2022-12-29T20:23:05.697Z,99253.03
2022-12-29T20:25:44.873Z,99251.34
2022-12-29T20:28:16.643Z,99247.81
2022-12-29T20:30:46.548Z,99247.88
2022-12-29T20:33:16.207Z,99254.81
2022-12-29T20:35:46.412Z,99254.78
2022-12-29T20:38:16.040Z,99263.28
2022-12-29T20:40:47.748Z,99263.28
2022-12-29T20:43:18.022Z,99267.63
2022-12-29T20:45:47.898Z,99259.56
2022-12-29T20:48:17.701Z,99254.56
2022-12-29T20:50:47.468Z,99245.84
2022-12-29T20:53:17.148Z,99244.78
2022-12-29T20:55:46.775Z,99249.03
2022-12-29T20:58:24.599Z,99248.88
2022-12-29T21:00:55.870Z,99243.34
2022-12-29T21:03:26.142Z,99244.09
2022-12-29T21:05:56.530Z,99238.13
2022-12-29T21:08:26.231Z,99245.88
2022-12-29T21:10:55.876Z,99245.16
2022-12-29T21:13:25.815Z,99247.66
2022-12-29T21:16:04.735Z,99246.03
2022-12-29T21:18:34.803Z,99238.91
2022-12-29T21:21:07.585Z,99239.81
2022-12-29T21:23:41.289Z,99238.22
2022-12-29T21:26:12.737Z,99241.34
2022-12-29T21:28:44.787Z,99245.56
2022-12-29T21:31:35.834Z,99243.09
2022-12-29T21:34:07.356Z,99242.06
2022-12-29T21:36:37.073Z,99237.88
2022-12-29T21:39:06.908Z,99249.16
2022-12-29T21:41:36.474Z,99252.41
2022-12-29T21:44:24.446Z,99247.25
2022-12-29T21:46:54.339Z,99256.66
2022-12-29T21:49:26.287Z,99264.34
2022-12-29T21:51:57.181Z,99259.00
2022-12-29T21:54:47.853Z,99259.94
2022-12-29T21:57:37.621Z,99264.34
2022-12-29T22:00:27.671Z,99264.31
2022-12-29T22:03:22.478Z,99259.94
2022-12-29T22:06:11.863Z,99254.06
2022-12-29T22:09:00.111Z,99257.34
2022-12-29T22:11:48.214Z,99254.81
2022-12-29T22:14:18.007Z,99253.03
2022-12-29T22:16:47.463Z,99251.34
2022-12-29T22:19:17.422Z,99243.63
2022-12-29T22:21:46.884Z,99246.22
2022-12-29T22:24:16.560Z,99240.97
2022-12-29T22:26:46.046Z,99238.91
2022-12-29T22:29:15.756Z,99245.00
2022-12-29T22:31:45.480Z,99237.56
2022-12-29T22:34:15.888Z,99229.59
2022-12-29T22:36:45.363Z,99227.91
2022-12-29T22:39:14.753Z,99227.13
2022-12-29T22:41:44.432Z,99229.69
2022-12-29T22:44:14.040Z,99233.09
2022-12-29T22:46:43.391Z,99230.41
2022-12-29T22:49:13.081Z,99224.41
2022-12-29T22:51:42.788Z,99229.41
2022-12-29T22:54:12.153Z,99221.75
2022-12-29T22:56:43.508Z,99223.44
2022-12-29T22:59:14.661Z,99224.22
2022-12-29T23:01:44.804Z,99228.59
2022-12-29T23:04:59.379Z,99233.53
2022-12-29T23:07:04.760Z,99233.53
2022-12-29T23:09:34.336Z,99227.44
2022-12-29T23:12:03.817Z,99225.66
2022-12-29T23:14:33.464Z,99221.41
2022-12-29T23:17:03.114Z,99217.00
2022-12-29T23:19:32.886Z,99213.44
2022-12-29T23:22:03.534Z,99213.34
2022-12-29T23:24:33.476Z,99214.31
2022-12-29T23:27:03.092Z,99216.78
2022-12-29T23:29:32.930Z,99209.97
2022-12-29T23:32:02.364Z,99213.44
2022-12-29T23:34:31.829Z,99216.41
2022-12-29T23:37:01.861Z,99215.03
2022-12-29T23:39:31.778Z,99221.75
2022-12-29T23:42:01.425Z,99219.28
2022-12-29T23:44:31.195Z,99216.63
2022-12-29T23:47:00.946Z,99214.13
2022-12-29T23:49:30.473Z,99220.84
2022-12-29T23:52:00.198Z,99220.84
2022-12-29T23:54:29.533Z,99228.38
2022-12-29T23:56:59.034Z,99230.66
2022-12-29T23:59:28.667Z,99221.16
